< Typhoon 202115 2021 Season Typhoon 202117 >
Typhoon 202116 (MINDULLE)
General InformationDetailed Track InformationTrack Information on Google MapsForecast History on Google MapsAccess Analytics MapList of All Images || NewsDisaster Info.WeblogTrackbackTyphoon FrontTwiphoonTyphoon Now!Typhoon ImaginationJMA Disaster Info. XMLResourceGoogle EarthGE AnimationAtom FeedGeoJSON
Detalied Best Track Wind (Time Zone = UTC)
Year Month Day Hour Lat. Long. Wind (kt) Gust (kt) Direc. of Major Storm Axis Radius of Major Storm Axis (nm) Radius of Minor Storm Axis (nm) Direc. of Major Gale Axis Radius of Major Gale Axis (nm) Radius of Minor Gale Axis (nm) Image
2021 9 23 06 13.3 144.5 30 45 - - - - - - Image
2021 9 23 09 13.3 144.1 30 45 - - - - - - Image
2021 9 23 12 13.6 143.3 35 50 - - - NE 180 60 Image
2021 9 23 15 13.9 142.5 35 50 - - - NE 180 60 Image
2021 9 23 18 14.1 142.0 35 50 - - - NE 180 60 Image
2021 9 23 21 14.2 141.6 40 60 - - - NE 180 60 Image
2021 9 24 00 14.5 141.1 40 60 - - - NE 180 60 Image
2021 9 24 03 14.9 140.8 40 60 - - - NE 150 90 Image
2021 9 24 06 15.2 140.5 40 60 - - - NE 150 90 Image
2021 9 24 09 15.8 139.7 40 60 - - - NE 150 90 Image
2021 9 24 12 16.0 139.3 50 70 - - - NE 180 90 Image
2021 9 24 15 16.1 139.0 50 70 - - - NE 180 90 Image
2021 9 24 18 16.6 138.8 55 80 symmetric 20 20 NE 180 90 Image
2021 9 24 21 16.8 138.4 55 80 symmetric 20 20 NE 180 90 Image
2021 9 25 00 17.1 138.2 65 95 symmetric 25 25 NE 180 90 Image
2021 9 25 03 17.4 137.9 65 95 symmetric 25 25 E 210 150 Image
2021 9 25 06 17.5 137.5 80 115 symmetric 45 45 E 210 150 Image
2021 9 25 09 17.8 137.6 80 115 symmetric 45 45 E 210 150 Image
2021 9 25 12 18.2 137.5 85 120 symmetric 50 50 E 210 150 Image
2021 9 25 15 18.3 137.3 85 120 symmetric 50 50 E 210 150 Image
2021 9 25 18 18.5 137.0 85 120 symmetric 50 50 E 210 150 Image
2021 9 25 21 18.7 136.9 90 130 symmetric 55 55 E 210 150 Image
2021 9 26 00 18.6 136.8 100 140 symmetric 70 70 E 270 150 Image
2021 9 26 03 18.7 136.7 100 140 symmetric 70 70 E 270 150 Image
2021 9 26 06 18.8 136.7 105 150 symmetric 80 80 E 270 150 Image
2021 9 26 09 18.9 136.7 105 150 symmetric 80 80 E 270 150 Image
2021 9 26 12 19.0 136.7 105 150 symmetric 80 80 E 270 150 Image
2021 9 26 15 19.2 136.7 105 150 symmetric 80 80 E 270 150 Image
2021 9 26 18 19.4 136.7 105 150 symmetric 80 80 E 300 150 Image
2021 9 26 21 19.5 136.7 105 150 symmetric 80 80 E 300 150 Image
2021 9 27 00 19.6 136.7 100 140 symmetric 80 80 E 300 150 Image
2021 9 27 03 19.7 136.7 100 140 symmetric 80 80 E 350 240 Image
2021 9 27 06 19.9 136.6 100 140 symmetric 80 80 E 350 240 Image
2021 9 27 09 20.0 136.5 100 140 symmetric 80 80 E 350 240 Image
2021 9 27 12 20.2 136.4 95 135 symmetric 100 100 E 350 240 Image
2021 9 27 15 20.3 136.2 95 135 symmetric 100 100 E 350 240 Image
2021 9 27 18 20.4 136.3 95 135 symmetric 100 100 E 350 240 Image
2021 9 27 21 20.7 136.3 95 135 symmetric 100 100 E 350 240 Image
2021 9 28 00 21.0 136.1 95 135 symmetric 100 100 E 350 240 Image
2021 9 28 03 21.2 135.8 95 135 symmetric 100 100 E 350 240 Image
2021 9 28 06 21.6 135.5 95 135 symmetric 100 100 E 350 240 Image
2021 9 28 09 21.8 135.4 95 135 symmetric 100 100 E 350 240 Image
2021 9 28 12 21.9 135.4 95 135 symmetric 100 100 E 350 300 Image
2021 9 28 15 22.2 135.5 95 135 symmetric 100 100 E 350 300 Image
2021 9 28 18 22.6 135.6 95 135 symmetric 100 100 E 350 300 Image
2021 9 28 21 23.0 135.6 95 135 symmetric 100 100 E 350 300 Image
2021 9 29 00 23.3 135.4 95 135 symmetric 100 100 E 350 300 Image
2021 9 29 03 23.7 135.2 95 135 symmetric 120 120 E 350 300 Image
2021 9 29 06 24.2 135.4 95 135 symmetric 120 120 E 350 300 Image
2021 9 29 09 24.5 135.4 95 135 symmetric 120 120 E 350 300 Image
2021 9 29 12 24.8 135.5 95 135 symmetric 120 120 E 350 300 Image
2021 9 29 15 25.3 135.6 95 135 symmetric 120 120 E 350 300 Image
2021 9 29 18 25.8 135.9 95 135 symmetric 120 120 E 350 300 Image
2021 9 29 21 26.2 136.1 95 135 symmetric 120 120 E 350 300 Image
2021 9 30 00 26.6 136.4 90 130 symmetric 120 120 E 350 300 Image
2021 9 30 03 27.3 136.9 90 130 symmetric 150 150 E 375 300 Image
2021 9 30 06 28.1 137.4 85 120 symmetric 150 150 E 375 300 Image
2021 9 30 09 28.5 137.6 85 120 symmetric 150 150 E 375 300 Image
2021 9 30 12 29.1 138.1 85 120 symmetric 150 150 E 400 300 Image
2021 9 30 15 29.8 138.6 85 120 symmetric 150 150 E 400 300 Image
2021 9 30 18 30.4 139.1 85 120 symmetric 150 150 E 400 300 Image
2021 9 30 21 31.0 140.1 85 120 symmetric 150 150 E 400 300 Image
2021 10 1 00 31.9 140.7 85 120 NW 170 150 E 400 300 Image
2021 10 1 03 32.5 141.2 85 120 NW 170 150 E 400 325 Image
2021 10 1 06 33.6 142.3 80 115 N 180 150 E 400 325 Image
2021 10 1 09 34.5 143.0 80 115 symmetric 150 150 E 400 325 Image
2021 10 1 12 35.4 143.6 70 100 E 210 150 E 375 325 Image
2021 10 1 15 36.4 144.7 70 100 E 210 150 E 375 325 Image
2021 10 1 18 37.2 145.6 65 95 E 180 130 E 375 325 Image
2021 10 1 21 38.4 146.6 65 95 E 180 130 E 375 325 Image
2021 10 2 00 39.0 148.0 60 0 - - - E 400 300 Image
Japan Meteorological Agency Best Track Data | Correction Date : 2021-10-02
< Typhoon 202115 2021 Season Typhoon 202117 >

Help